CYXL

Sioux Lookout Airport

Sioux Lookout, Ontario, Canada
TAF CYXL 161940Z 1620/1708 30010G20KT P6SM BKN060 TEMPO 1620/1622 P6SM -SHRA BECMG 1622/1624 34008KT FM170400 VRB03KT P6SM FEW040 RMK NXT FCST BY 170200Z
Issued Valid From Valid To
Jul-16 @ 19:40 UTC
(23 minutes ago)
Jul-16 @ 20:00 UTC
(3 minutes ago)
Jul-17 @ 08:00 UTC
(in 12 hours)
Jul-16 @ 20:00 to Jul-16 @ 22:00
TAF CYXL 161940Z 1620/1708 30010G20KT P6SM BKN060
Wind Visibility Clouds
300° at 10 knots
 Gusting to 20 knots
Greater than 6 miles
  • Broken at 6,000' AGL
Temporary Jul-16 @ 20:00 to Jul-16 @ 22:00
TEMPO 1620/1622 P6SM -SHRA
Visibility Conditions
Greater than 6 miles
  • Light Rain
Becoming Jul-16 @ 22:00 to Jul-17 @ 04:00
BECMG 1622/1624 34008KT
Wind Visibility Clouds
340° at 8 knots Greater than 6 miles
  • Broken at 6,000' AGL
From Jul-17 @ 04:00 to Jul-17 @ 08:00
FM170400 VRB03KT P6SM FEW040 RMK NXT FCST BY 170200Z
Wind Visibility Clouds
Variable at 3 knots Greater than 6 miles
  • Few at 4,000' AGL
TAF CYXL 161940Z 1620/1708 30010G20KT P6SM BKN060 TEMPO 1620/1622 P6SM -SHRA BECMG 1622/1624 34008KT FM170400 VRB03KT P6SM FEW040 RMK NXT FCST BY 170200Z
Issued Jul-16 @ 19:40 UTC
(23 minutes ago)
Valid From Jul-16 @ 20:00 UTC
(3 minutes ago)
Valid To Jul-17 @ 08:00 UTC
(in 12 hours)
Jul-16 @ 20:00 - Jul-16 @ 22:00
Wind Visibility
300° at 10 knots
 Gusting to 20 knots
Greater than 6 miles
Clouds
  • Broken at 6,000' AGL
Temporary Jul-16 @ 20:00 - Jul-16 @ 22:00
Conditions
  • Light Rain
Becoming Jul-16 @ 22:00 - Jul-17 @ 04:00
Wind Visibility
340° at 8 knots Greater than 6 miles
Clouds
  • Broken at 6,000' AGL
From Jul-17 @ 04:00 - Jul-17 @ 08:00
Wind Visibility
Variable at 3 knots Greater than 6 miles
Clouds
  • Few at 4,000' AGL